Time;durP1;ratioP1;P1;durP2;ratioP2;P2;SDS_P1;SDS_P2;PMS_P1;PMS_P2;Temp;Humidity;BMP_temperature;BMP_pressure;BME280_temperature;BME280_humidity;BME280_pressure;Samples;Min_cycle;Max_cycle;Signal;HPM_P1;HPM_P2
2023/06/01 00:02:13;;;;;;;1.40;1.00;;;17.20;96.20;;;;;;5027845;28;20540;-79
2023/06/01 00:04:40;;;;;;;1.50;1.00;;;17.20;96.30;;;;;;5031009;28;20487;-80
2023/06/01 00:07:07;;;;;;;2.03;1.83;;;17.20;96.30;;;;;;5026699;28;20490;-79
2023/06/01 00:09:34;;;;;;;1.40;0.90;;;17.20;96.00;;;;;;5029735;28;20459;-80
2023/06/01 00:12:01;;;;;;;1.40;0.90;;;17.10;96.30;;;;;;5019538;28;20475;-79
2023/06/01 00:14:28;;;;;;;1.50;1.00;;;17.10;96.50;;;;;;5025270;28;20476;-80
2023/06/01 00:16:56;;;;;;;1.50;1.00;;;17.10;96.60;;;;;;5024097;28;20915;-80
2023/06/01 00:19:25;;;;;;;1.43;0.97;;;17.00;96.90;;;;;;5037186;28;20521;-79
2023/06/01 00:21:53;;;;;;;1.40;0.90;;;17.00;96.50;;;;;;5017698;28;20490;-79
2023/06/01 00:24:20;;;;;;;1.50;0.97;;;17.00;96.20;;;;;;5060622;28;20481;-79
2023/06/01 00:26:47;;;;;;;1.50;1.00;;;17.00;96.70;;;;;;5052695;28;20484;-79
2023/06/01 00:29:14;;;;;;;1.50;1.13;;;16.90;96.60;;;;;;5070488;28;20454;-79
2023/06/01 00:31:41;;;;;;;1.50;1.10;;;16.90;97.40;;;;;;5054144;28;20481;-80
2023/06/01 00:34:08;;;;;;;1.50;0.97;;;16.80;97.10;;;;;;5054947;28;20485;-79
2023/06/01 00:36:37;;;;;;;1.50;0.90;;;16.80;97.40;;;;;;5041420;28;20937;-80
2023/06/01 00:39:04;;;;;;;1.50;0.93;;;16.70;97.10;;;;;;5053248;28;20896;-79
2023/06/01 00:41:31;;;;;;;1.43;1.00;;;16.70;97.40;;;;;;5053491;28;20494;-79
2023/06/01 00:43:58;;;;;;;1.47;1.00;;;16.70;97.60;;;;;;5068896;28;20483;-79
2023/06/01 00:46:25;;;;;;;1.50;1.00;;;16.60;97.80;;;;;;5054201;28;20486;-78
2023/06/01 00:48:52;;;;;;;1.47;0.90;;;16.60;97.60;;;;;;5068049;28;20961;-79
2023/06/01 00:51:19;;;;;;;1.43;1.00;;;16.60;97.90;;;;;;5056282;28;20486;-79
2023/06/01 00:53:48;;;;;;;1.43;0.90;;;16.50;98.00;;;;;;5065202;28;20477;-79
2023/06/01 00:56:15;;;;;;;1.50;1.10;;;16.50;97.40;;;;;;5056835;28;20894;-81
2023/06/01 00:58:42;;;;;;;1.50;1.00;;;16.50;97.60;;;;;;5066958;28;20488;-80
2023/06/01 01:01:18;;;;;;;1.43;0.90;;;16.50;98.00;;;;;;5045028;28;20493;-77
2023/06/01 01:03:49;;;;;;;1.50;1.00;;;16.50;97.80;;;;;;5058038;28;20477;-77
2023/06/01 01:06:26;;;;;;;1.50;1.00;;;16.40;97.80;;;;;;5055756;28;21046;-77
2023/06/01 01:09:08;;;;;;;1.50;1.00;;;16.40;98.20;;;;;;5061717;28;20493;-77
2023/06/01 01:11:39;;;;;;;1.50;1.00;;;16.30;98.20;;;;;;5053171;28;20509;-77
2023/06/01 01:14:12;;;;;;;1.43;0.90;;;16.30;98.20;;;;;;5055294;28;20490;-77
2023/06/01 01:16:46;;;;;;;1.50;1.30;;;16.20;98.20;;;;;;5053826;28;20482;-78
2023/06/01 01:19:31;;;;;;;1.47;0.90;;;16.20;98.20;;;;;;5059771;28;21063;-77
2023/06/01 01:22:14;;;;;;;2.07;1.87;;;16.20;98.20;;;;;;5051443;28;21105;-80
2023/06/01 01:24:48;;;;;;;1.50;1.00;;;16.20;98.20;;;;;;5066192;28;20496;-80
2023/06/01 01:27:25;;;;;;;1.50;1.00;;;16.10;98.20;;;;;;5055245;28;21019;-79
2023/06/01 01:29:55;;;;;;;1.50;1.00;;;16.10;98.20;;;;;;5065709;28;20458;-80
2023/06/01 01:32:24;;;;;;;1.50;1.00;;;16.10;98.20;;;;;;5055161;28;20523;-80
2023/06/01 01:34:52;;;;;;;1.43;1.00;;;16.00;98.20;;;;;;5066361;28;20521;-80
2023/06/01 01:37:20;;;;;;;1.50;1.00;;;16.00;98.20;;;;;;5046453;28;20478;-80
2023/06/01 01:39:47;;;;;;;1.50;1.10;;;15.90;98.20;;;;;;5050559;28;20462;-80
2023/06/01 01:42:14;;;;;;;1.50;1.00;;;15.90;98.20;;;;;;5044167;28;20486;-80
2023/06/01 01:44:41;;;;;;;1.50;1.00;;;15.80;98.20;;;;;;5058091;28;20564;-81
2023/06/01 01:47:14;;;;;;;1.50;1.10;;;15.80;98.20;;;;;;5052165;28;20481;-79
2023/06/01 01:49:44;;;;;;;1.43;1.00;;;15.80;98.20;;;;;;5036143;28;20542;-79
2023/06/01 01:52:16;;;;;;;1.50;1.00;;;15.70;98.20;;;;;;5042582;28;20486;-80
2023/06/01 01:54:45;;;;;;;1.50;0.97;;;15.70;98.20;;;;;;5059675;28;20854;-79
2023/06/01 01:57:14;;;;;;;1.50;0.90;;;15.60;98.20;;;;;;5052961;28;20508;-79
2023/06/01 01:59:42;;;;;;;1.50;1.00;;;15.60;98.20;;;;;;5067827;28;20549;-80
2023/06/01 02:02:11;;;;;;;1.50;1.00;;;15.60;98.20;;;;;;5052923;28;20486;-80
2023/06/01 02:04:40;;;;;;;1.50;0.90;;;15.60;98.20;;;;;;5062283;28;21047;-80
2023/06/01 02:07:07;;;;;;;1.50;1.00;;;15.50;98.20;;;;;;5041454;28;20481;-79
2023/06/01 02:09:34;;;;;;;1.50;0.90;;;15.50;98.20;;;;;;5065557;28;20481;-78
2023/06/01 02:12:01;;;;;;;1.50;1.00;;;15.50;98.20;;;;;;5054304;28;20481;-80
2023/06/01 02:14:28;;;;;;;1.50;1.00;;;15.50;98.20;;;;;;5068090;28;20557;-81
2023/06/01 02:16:55;;;;;;;1.47;0.90;;;15.40;98.20;;;;;;5049618;28;20487;-79
2023/06/01 02:19:23;;;;;;;1.47;1.00;;;15.40;98.20;;;;;;5058984;28;20463;-80
2023/06/01 02:21:50;;;;;;;1.47;1.00;;;15.30;98.20;;;;;;5047857;28;20493;-79
2023/06/01 02:24:17;;;;;;;1.50;1.00;;;15.30;98.20;;;;;;5069768;28;20489;-80
2023/06/01 02:26:44;;;;;;;1.50;1.00;;;15.20;98.20;;;;;;5052973;28;20481;-80
2023/06/01 02:29:13;;;;;;;1.50;1.00;;;15.20;98.20;;;;;;5069510;28;20458;-80
2023/06/01 02:31:40;;;;;;;1.50;1.00;;;15.20;98.20;;;;;;5054385;28;21082;-80
2023/06/01 02:34:06;;;;;;;1.43;1.00;;;15.20;98.20;;;;;;5068682;28;20509;-81
2023/06/01 02:36:35;;;;;;;1.43;1.00;;;15.10;98.20;;;;;;5054687;28;21344;-81
2023/06/01 02:39:01;;;;;;;1.50;1.00;;;15.10;98.20;;;;;;5061502;28;20458;-80
2023/06/01 02:41:28;;;;;;;1.50;1.00;;;15.10;98.20;;;;;;5058625;28;20856;-79
2023/06/01 02:43:55;;;;;;;1.50;1.00;;;15.00;98.20;;;;;;5068019;28;20482;-79
2023/06/01 02:46:22;;;;;;;1.47;1.00;;;15.00;98.20;;;;;;5046716;28;20474;-79
2023/06/01 02:48:50;;;;;;;1.50;0.90;;;15.00;98.20;;;;;;5067132;28;20462;-78
2023/06/01 02:51:18;;;;;;;1.50;1.03;;;14.90;98.20;;;;;;5055566;28;20486;-80
2023/06/01 02:53:47;;;;;;;1.50;1.10;;;14.90;98.20;;;;;;5063643;28;20564;-79
2023/06/01 02:56:14;;;;;;;1.40;1.00;;;14.90;98.20;;;;;;5052445;28;20482;-80
2023/06/01 02:58:41;;;;;;;1.50;1.00;;;14.80;98.20;;;;;;5066834;28;20477;-80
2023/06/01 03:01:12;;;;;;;1.50;1.00;;;14.80;98.20;;;;;;5057589;28;20504;-79
2023/06/01 03:03:40;;;;;;;1.50;1.00;;;14.70;98.20;;;;;;5065275;28;20488;-80
2023/06/01 03:06:08;;;;;;;1.50;1.00;;;14.80;98.20;;;;;;5056826;28;20478;-79
2023/06/01 03:08:35;;;;;;;1.47;1.00;;;14.70;98.20;;;;;;5056550;28;20616;-81
2023/06/01 03:11:03;;;;;;;1.50;1.00;;;14.70;98.20;;;;;;5056483;28;20472;-79
2023/06/01 03:13:30;;;;;;;1.43;1.00;;;14.70;98.20;;;;;;5065658;28;20477;-80
2023/06/01 03:15:57;;;;;;;1.50;1.00;;;14.70;98.20;;;;;;5054232;28;20482;-79
2023/06/01 03:18:24;;;;;;;1.50;1.00;;;14.70;98.20;;;;;;5063688;28;20473;-80
2023/06/01 03:20:52;;;;;;;1.47;1.00;;;14.70;98.20;;;;;;5048875;28;20465;-79
2023/06/01 03:28:25;;;;;;;1.47;0.90;;;14.50;98.20;;;;;;4998949;28;21153;-77
2023/06/01 03:30:52;;;;;;;1.50;1.10;;;14.50;98.20;;;;;;4970110;28;20473;-78
2023/06/01 03:33:18;;;;;;;1.50;1.00;;;14.50;98.20;;;;;;4989385;28;20469;-78
2023/06/01 03:35:45;;;;;;;1.50;1.00;;;14.40;98.20;;;;;;4979549;28;20484;-78
2023/06/01 03:38:12;;;;;;;1.50;1.00;;;14.40;98.20;;;;;;4950329;28;20494;-79
2023/06/01 03:40:38;;;;;;;1.50;1.00;;;14.30;98.20;;;;;;4958500;28;20467;-79
2023/06/01 03:43:05;;;;;;;1.47;1.00;;;14.30;98.20;;;;;;4980461;28;20491;-76
2023/06/01 03:45:33;;;;;;;1.50;1.00;;;14.20;98.20;;;;;;4978224;28;20772;-78
2023/06/01 03:48:00;;;;;;;1.50;1.00;;;14.20;98.20;;;;;;4982875;28;20495;-78
2023/06/01 03:50:27;;;;;;;1.80;1.30;;;14.20;98.20;;;;;;4975351;28;20776;-78
2023/06/01 03:52:54;;;;;;;1.50;1.00;;;14.20;98.20;;;;;;4984782;28;20522;-79
2023/06/01 03:55:22;;;;;;;1.47;1.00;;;14.10;98.20;;;;;;4976593;28;20481;-79
2023/06/01 03:57:50;;;;;;;1.50;1.00;;;14.10;98.20;;;;;;4985206;28;20862;-80
2023/06/01 04:00:19;;;;;;;1.50;1.00;;;14.00;98.20;;;;;;4983418;28;20465;-80
2023/06/01 04:02:53;;;;;;;1.50;1.00;;;14.00;98.20;;;;;;4991909;28;20522;-79
2023/06/01 04:05:20;;;;;;;1.43;1.00;;;14.00;98.20;;;;;;4986345;28;20552;-79
2023/06/01 04:07:48;;;;;;;1.43;1.00;;;13.90;98.20;;;;;;4990943;28;20870;-78
2023/06/01 04:10:16;;;;;;;1.50;1.00;;;14.00;98.20;;;;;;4985151;28;20568;-79
2023/06/01 04:12:43;;;;;;;1.50;1.00;;;13.90;98.20;;;;;;4985253;28;20483;-78
2023/06/01 04:15:11;;;;;;;1.43;1.00;;;13.90;98.20;;;;;;4982472;28;20486;-79
2023/06/01 04:17:38;;;;;;;1.50;1.00;;;13.90;98.20;;;;;;4987463;28;20484;-79
2023/06/01 04:20:10;;;;;;;1.50;1.10;;;13.90;98.20;;;;;;4988014;28;20449;-79
2023/06/01 04:22:37;;;;;;;1.50;0.93;;;13.90;98.20;;;;;;4989844;28;20485;-79
2023/06/01 04:25:07;;;;;;;1.50;1.10;;;13.90;98.20;;;;;;4985901;28;20482;-79
2023/06/01 04:27:36;;;;;;;1.50;1.00;;;13.90;98.20;;;;;;4989090;28;20492;-79
2023/06/01 04:30:03;;;;;;;1.50;1.10;;;13.90;98.20;;;;;;4986505;28;20464;-78
2023/06/01 04:32:31;;;;;;;1.50;1.00;;;13.90;98.20;;;;;;4990899;28;20557;-79
2023/06/01 04:35:01;;;;;;;1.50;1.00;;;14.00;98.20;;;;;;4987601;28;21044;-79
2023/06/01 04:37:29;;;;;;;1.50;1.00;;;14.00;98.20;;;;;;4984619;28;20495;-78
2023/06/01 04:39:58;;;;;;;1.50;1.00;;;14.00;98.20;;;;;;4983790;28;20735;-77
2023/06/01 04:42:25;;;;;;;1.50;1.10;;;14.00;98.20;;;;;;4983489;28;20914;-78
2023/06/01 04:44:53;;;;;;;3.00;2.60;;;14.00;98.20;;;;;;4984025;28;20485;-77
2023/06/01 04:47:20;;;;;;;1.50;1.00;;;14.10;98.20;;;;;;4984125;28;20662;-78
2023/06/01 04:49:47;;;;;;;1.50;1.10;;;14.10;98.20;;;;;;4984096;28;20465;-77
2023/06/01 04:52:14;;;;;;;1.50;1.30;;;14.20;98.20;;;;;;4981053;28;20521;-77
2023/06/01 04:54:43;;;;;;;1.50;1.23;;;14.10;98.20;;;;;;4988142;28;20480;-79
2023/06/01 04:57:10;;;;;;;1.50;1.10;;;14.10;98.20;;;;;;4980892;28;20482;-78
2023/06/01 04:59:37;;;;;;;1.83;1.50;;;14.10;98.20;;;;;;4983389;28;20527;-77
2023/06/01 05:02:05;;;;;;;1.43;0.93;;;14.20;98.20;;;;;;4983028;28;20986;-77
2023/06/01 05:04:31;;;;;;;2.23;2.03;;;14.20;98.20;;;;;;4990053;28;20588;-78
2023/06/01 05:06:58;;;;;;;1.50;1.10;;;14.20;98.20;;;;;;4981911;28;20839;-77
2023/06/01 05:09:25;;;;;;;1.50;1.00;;;14.20;98.20;;;;;;4985511;28;20462;-78
2023/06/01 05:11:53;;;;;;;1.50;1.10;;;14.20;98.20;;;;;;4980910;28;20499;-76
2023/06/01 05:14:20;;;;;;;1.50;1.03;;;14.20;98.20;;;;;;4973067;28;20482;-79
2023/06/01 05:16:48;;;;;;;1.47;1.00;;;14.20;98.20;;;;;;4960300;28;20500;-77
2023/06/01 05:19:15;;;;;;;1.50;1.07;;;14.20;98.20;;;;;;4967477;28;20614;-77
2023/06/01 05:21:43;;;;;;;1.50;1.00;;;14.20;98.20;;;;;;4968731;28;20476;-77
2023/06/01 05:24:10;;;;;;;1.50;1.10;;;14.20;98.20;;;;;;4987222;28;20477;-77
2023/06/01 05:26:36;;;;;;;1.50;0.90;;;14.20;98.20;;;;;;4976627;28;20495;-79
2023/06/01 05:29:04;;;;;;;1.43;0.90;;;14.30;98.20;;;;;;4992615;28;20461;-78
2023/06/01 05:31:31;;;;;;;1.50;1.00;;;14.20;98.20;;;;;;4970877;28;20593;-78
2023/06/01 05:33:58;;;;;;;1.50;0.90;;;14.20;98.20;;;;;;4969277;28;21251;-76
2023/06/01 05:36:25;;;;;;;1.50;1.00;;;14.30;98.20;;;;;;4958845;28;21066;-77
2023/06/01 05:38:54;;;;;;;1.43;0.90;;;14.30;98.20;;;;;;4987183;28;20486;-76
2023/06/01 05:41:21;;;;;;;1.50;1.20;;;14.30;98.20;;;;;;4974781;28;20542;-76
2023/06/01 05:43:48;;;;;;;1.60;1.30;;;14.40;98.20;;;;;;4991523;28;20461;-77
2023/06/01 05:46:16;;;;;;;3.57;3.37;;;14.40;98.20;;;;;;4975640;28;20495;-76
2023/06/01 05:48:43;;;;;;;1.50;1.07;;;14.40;98.20;;;;;;4991038;28;20461;-79
2023/06/01 05:51:10;;;;;;;1.50;1.00;;;14.30;98.20;;;;;;4973452;28;20518;-75
2023/06/01 05:53:37;;;;;;;1.50;1.10;;;14.30;98.20;;;;;;4989360;28;20461;-76
2023/06/01 05:56:03;;;;;;;1.50;1.00;;;14.30;98.20;;;;;;4971024;28;20474;-75
2023/06/01 05:58:30;;;;;;;1.47;1.00;;;14.30;98.20;;;;;;4992405;28;20488;-75
2023/06/01 06:00:57;;;;;;;1.50;1.00;;;14.30;98.20;;;;;;4970160;28;20468;-76
2023/06/01 06:03:25;;;;;;;1.50;1.00;;;14.20;98.20;;;;;;4989456;28;20907;-75
2023/06/01 06:05:52;;;;;;;1.50;1.00;;;14.20;98.20;;;;;;4963552;28;20485;-78
2023/06/01 06:08:19;;;;;;;1.47;1.00;;;14.10;98.20;;;;;;4993860;28;20843;-75
2023/06/01 06:10:46;;;;;;;1.47;1.00;;;14.10;98.20;;;;;;4979000;28;20614;-76
2023/06/01 06:13:14;;;;;;;1.53;1.30;;;14.10;98.20;;;;;;4994773;28;20553;-75
2023/06/01 06:15:41;;;;;;;1.50;1.00;;;14.10;98.20;;;;;;4974656;28;20515;-75
2023/06/01 06:18:08;;;;;;;1.50;1.07;;;14.10;98.20;;;;;;4983856;28;20487;-75
2023/06/01 06:20:36;;;;;;;1.50;1.00;;;14.10;98.20;;;;;;4981317;28;20848;-76
2023/06/01 06:23:03;;;;;;;1.50;1.07;;;14.20;98.20;;;;;;4981220;28;20485;-76
2023/06/01 06:25:29;;;;;;;1.50;1.00;;;14.20;98.20;;;;;;4980711;28;20482;-76
2023/06/01 06:27:56;;;;;;;1.50;1.00;;;14.20;98.20;;;;;;4984169;28;20941;-76
2023/06/01 06:30:24;;;;;;;1.50;1.00;;;14.20;98.20;;;;;;4978276;28;20552;-75
2023/06/01 06:32:51;;;;;;;1.50;0.90;;;14.30;98.20;;;;;;4984171;28;20488;-76
2023/06/01 06:35:18;;;;;;;1.50;1.10;;;14.40;98.20;;;;;;4980064;28;20496;-75
2023/06/01 06:37:46;;;;;;;1.50;1.00;;;14.40;98.20;;;;;;4984127;28;20480;-76
2023/06/01 06:40:13;;;;;;;1.50;1.00;;;14.30;98.20;;;;;;4978622;28;20461;-77
2023/06/01 06:42:41;;;;;;;1.50;0.90;;;14.20;98.20;;;;;;4982535;28;20991;-76
2023/06/01 06:45:09;;;;;;;1.50;0.90;;;14.20;98.20;;;;;;4973250;28;20478;-76
2023/06/01 06:47:36;;;;;;;1.50;1.20;;;14.20;98.20;;;;;;4978179;28;20982;-77
2023/06/01 06:50:02;;;;;;;1.43;0.90;;;14.30;98.20;;;;;;4976688;28;20950;-76
2023/06/01 06:52:30;;;;;;;1.50;1.00;;;14.40;98.20;;;;;;4980542;28;20520;-75
2023/06/01 06:54:58;;;;;;;1.50;1.00;;;14.40;98.20;;;;;;4981663;28;20482;-78
2023/06/01 06:57:25;;;;;;;1.47;1.00;;;14.40;98.20;;;;;;4986954;28;20994;-78
2023/06/01 06:59:51;;;;;;;1.50;1.10;;;14.50;98.20;;;;;;4983859;28;20469;-76
2023/06/01 07:02:19;;;;;;;1.50;1.00;;;14.50;98.20;;;;;;4978374;28;20594;-76
2023/06/01 07:04:45;;;;;;;1.40;1.00;;;14.50;98.20;;;;;;4977278;28;20496;-77
2023/06/01 07:07:12;;;;;;;1.50;1.10;;;14.70;98.20;;;;;;4978977;28;20489;-76
2023/06/01 07:09:39;;;;;;;1.47;1.00;;;14.70;98.20;;;;;;4982456;28;20850;-76
2023/06/01 07:12:08;;;;;;;1.50;1.00;;;14.70;98.20;;;;;;4982299;28;20491;-77
2023/06/01 07:14:35;;;;;;;1.50;1.30;;;14.80;98.20;;;;;;4987295;28;20501;-77
2023/06/01 07:17:01;;;;;;;1.50;1.00;;;14.80;98.20;;;;;;4981523;28;20484;-76
2023/06/01 07:19:32;;;;;;;1.50;1.10;;;14.90;98.20;;;;;;4980248;28;20493;-77
2023/06/01 07:21:59;;;;;;;1.50;1.00;;;15.00;98.20;;;;;;4975950;28;20922;-77
2023/06/01 07:24:27;;;;;;;1.50;1.00;;;14.90;98.20;;;;;;4985859;28;20892;-76
2023/06/01 07:26:55;;;;;;;1.50;1.00;;;14.90;98.20;;;;;;4977293;28;20861;-76
2023/06/01 07:29:23;;;;;;;1.50;1.10;;;14.90;98.20;;;;;;4971264;28;20941;-77
2023/06/01 07:31:52;;;;;;;1.50;0.90;;;14.90;98.20;;;;;;4957246;28;20524;-76
2023/06/01 07:34:19;;;;;;;1.50;1.00;;;15.00;98.20;;;;;;4962400;28;20481;-75
2023/06/01 07:36:47;;;;;;;1.50;0.90;;;15.20;98.20;;;;;;4961583;28;20488;-77
2023/06/01 07:39:14;;;;;;;1.47;1.00;;;15.50;98.20;;;;;;4974673;28;20508;-76
2023/06/01 07:41:42;;;;;;;1.60;1.40;;;15.60;98.20;;;;;;4960394;28;20497;-76
2023/06/01 07:44:09;;;;;;;1.50;0.90;;;15.90;98.20;;;;;;4964415;28;20570;-78
2023/06/01 07:46:37;;;;;;;1.47;1.00;;;16.20;98.20;;;;;;4955528;28;20495;-77
2023/06/01 07:49:04;;;;;;;1.47;0.90;;;16.50;98.20;;;;;;4969546;28;20824;-76
2023/06/01 07:51:31;;;;;;;1.80;1.30;;;16.60;98.20;;;;;;4959093;28;20487;-77
2023/06/01 07:53:59;;;;;;;1.50;1.00;;;16.90;98.20;;;;;;4971420;28;20486;-79
2023/06/01 07:56:27;;;;;;;1.50;0.90;;;17.00;97.50;;;;;;4957656;28;20996;-76
2023/06/01 07:58:54;;;;;;;1.47;0.90;;;17.00;97.60;;;;;;4969174;28;20542;-77
2023/06/01 08:01:21;;;;;;;1.47;0.93;;;17.40;97.20;;;;;;4955858;28;20484;-79
2023/06/01 08:03:50;;;;;;;2.00;1.43;;;17.60;96.10;;;;;;4973317;28;20960;-77
2023/06/01 08:06:17;;;;;;;1.50;1.00;;;17.70;95.70;;;;;;4957886;28;21183;-77
2023/06/01 08:08:45;;;;;;;1.50;0.90;;;18.00;95.60;;;;;;4968712;28;20492;-77
2023/06/01 08:11:12;;;;;;;1.50;0.90;;;18.10;93.90;;;;;;4956287;28;20941;-77
2023/06/01 08:13:41;;;;;;;1.50;1.00;;;18.20;93.90;;;;;;4975531;28;20510;-78
2023/06/01 08:23:05;;;;;;;1.50;0.90;;;18.80;93.60;;;;;;4966525;28;20472;-79
2023/06/01 08:25:33;;;;;;;1.50;1.00;;;18.80;92.00;;;;;;4956380;28;20490;-79
2023/06/01 08:28:00;;;;;;;1.50;0.90;;;19.00;91.60;;;;;;4983270;28;20479;-78
2023/06/01 08:30:27;;;;;;;1.60;1.40;;;19.10;90.20;;;;;;4984056;28;20843;-78
2023/06/01 08:32:55;;;;;;;1.50;0.90;;;19.20;90.20;;;;;;4972099;28;20496;-79
2023/06/01 08:35:22;;;;;;;2.23;1.37;;;19.30;90.20;;;;;;4957674;28;20694;-77
2023/06/01 08:37:49;;;;;;;1.50;0.90;;;19.30;90.90;;;;;;4964761;28;20671;-78
2023/06/01 08:40:18;;;;;;;1.50;0.90;;;19.50;90.40;;;;;;4966468;28;20718;-78
2023/06/01 08:42:55;;;;;;;1.50;0.90;;;19.70;90.20;;;;;;4963308;28;20500;-79
2023/06/01 08:45:23;;;;;;;1.50;0.90;;;19.80;88.90;;;;;;4959566;28;20568;-77
2023/06/01 08:47:51;;;;;;;1.43;0.90;;;20.00;89.00;;;;;;4963263;28;20477;-78
2023/06/01 08:50:19;;;;;;;1.50;1.00;;;20.10;89.40;;;;;;4962285;28;20590;-79
2023/06/01 08:52:48;;;;;;;1.50;0.90;;;20.40;88.50;;;;;;4969084;28;20624;-80
2023/06/01 08:55:17;;;;;;;1.50;0.90;;;20.60;87.10;;;;;;4968341;28;20492;-78
2023/06/01 08:57:44;;;;;;;1.50;1.10;;;20.70;87.00;;;;;;4966656;28;20572;-78
2023/06/01 09:00:13;;;;;;;1.50;0.90;;;20.80;85.50;;;;;;4958168;28;20463;-78
2023/06/01 09:02:42;;;;;;;1.60;1.30;;;21.00;86.30;;;;;;4969342;28;20970;-78
2023/06/01 09:05:11;;;;;;;1.43;0.90;;;21.10;84.30;;;;;;4968387;28;20482;-79
2023/06/01 09:07:38;;;;;;;1.50;1.00;;;21.20;82.80;;;;;;4974119;28;20481;-80
2023/06/01 09:10:06;;;;;;;1.50;0.83;;;21.10;85.60;;;;;;4957049;28;20491;-81
2023/06/01 09:12:40;;;;;;;1.50;0.90;;;21.20;83.60;;;;;;4967486;28;20486;-84
2023/06/01 09:15:10;;;;;;;1.43;0.83;;;21.50;83.20;;;;;;4962972;28;20561;-80
2023/06/01 09:17:38;;;;;;;1.50;0.90;;;21.70;82.80;;;;;;4966689;28;20478;-80
2023/06/01 09:20:06;;;;;;;1.80;1.30;;;21.90;82.20;;;;;;4970121;28;20492;-78
2023/06/01 09:22:44;;;;;;;1.43;0.90;;;22.20;81.00;;;;;;4964371;28;20560;-78
2023/06/01 09:25:13;;;;;;;1.47;0.90;;;22.50;81.60;;;;;;4964107;28;20517;-79
2023/06/01 09:27:46;;;;;;;1.47;0.90;;;22.50;79.50;;;;;;4965484;28;21115;-78
2023/06/01 09:30:15;;;;;;;1.47;0.90;;;22.70;81.10;;;;;;4966642;28;20457;-79
2023/06/01 09:32:44;;;;;;;1.43;0.80;;;22.80;80.20;;;;;;4968521;28;20486;-78
2023/06/01 09:35:11;;;;;;;1.47;0.80;;;22.90;78.80;;;;;;4955727;28;20478;-78
2023/06/01 09:37:39;;;;;;;1.47;0.90;;;22.90;78.70;;;;;;4967797;28;20578;-78
2023/06/01 09:40:21;;;;;;;1.43;0.90;;;23.10;80.00;;;;;;4966039;28;20494;-79
2023/06/01 09:42:50;;;;;;;1.50;0.90;;;23.30;79.00;;;;;;4961631;28;20572;-78
2023/06/01 09:45:20;;;;;;;1.50;0.90;;;23.60;77.80;;;;;;4960053;28;20558;-79
2023/06/01 09:47:47;;;;;;;1.47;0.83;;;23.70;76.90;;;;;;4970524;28;20483;-79
2023/06/01 09:50:32;;;;;;;1.43;0.90;;;23.70;76.80;;;;;;4964288;28;20459;-78
2023/06/01 09:52:59;;;;;;;1.47;0.80;;;23.70;77.20;;;;;;4961249;28;20530;-79
2023/06/01 09:55:27;;;;;;;1.50;0.80;;;23.90;76.70;;;;;;4958386;28;20482;-77
2023/06/01 09:58:20;;;;;;;1.50;1.20;;;24.10;77.70;;;;;;4966926;28;20551;-78
2023/06/01 10:00:49;;;;;;;1.47;0.80;;;24.40;75.60;;;;;;4957177;28;20476;-76
2023/06/01 10:03:16;;;;;;;1.40;0.90;;;24.50;73.90;;;;;;4974075;28;20476;-77
2023/06/01 10:05:44;;;;;;;1.50;0.83;;;24.60;74.60;;;;;;4962509;28;20577;-76
2023/06/01 10:08:13;;;;;;;1.43;0.90;;;24.60;74.70;;;;;;4984569;28;20493;-77
2023/06/01 10:10:40;;;;;;;1.43;0.80;;;24.80;74.70;;;;;;4981804;28;20491;-78
2023/06/01 10:13:09;;;;;;;1.80;1.33;;;25.10;72.70;;;;;;4983891;28;21041;-78
2023/06/01 10:15:37;;;;;;;1.50;0.80;;;25.00;72.80;;;;;;4979056;28;20543;-77
2023/06/01 10:18:04;;;;;;;1.40;0.80;;;25.00;73.80;;;;;;4988113;28;20516;-79
2023/06/01 10:20:34;;;;;;;1.50;1.00;;;25.10;73.80;;;;;;4984953;28;20892;-76
2023/06/01 10:23:02;;;;;;;1.40;0.80;;;25.10;73.60;;;;;;4982794;28;20487;-78
2023/06/01 10:25:33;;;;;;;1.47;0.90;;;25.20;73.50;;;;;;4973146;28;21007;-78
2023/06/01 10:28:04;;;;;;;1.40;0.90;;;25.30;72.20;;;;;;4984171;28;20527;-76
2023/06/01 10:30:32;;;;;;;1.50;1.00;;;25.20;72.10;;;;;;4979227;28;21109;-77
2023/06/01 10:33:00;;;;;;;1.43;0.90;;;25.30;72.40;;;;;;4985397;28;20481;-77
2023/06/01 10:35:54;;;;;;;1.43;0.80;;;25.60;72.10;;;;;;4976158;28;20480;-77
2023/06/01 10:38:24;;;;;;;1.47;0.80;;;25.80;71.80;;;;;;4955162;28;20904;-77
2023/06/01 10:40:51;;;;;;;1.47;0.90;;;25.80;69.10;;;;;;4951926;28;20521;-77
2023/06/01 10:43:40;;;;;;;1.50;0.80;;;25.90;70.20;;;;;;4977714;28;20572;-77
2023/06/01 10:46:38;;;;;;;1.50;0.90;;;26.10;69.60;;;;;;4956698;28;20483;-78
2023/06/01 10:49:06;;;;;;;1.60;1.20;;;26.30;69.20;;;;;;4980285;28;20562;-79
2023/06/01 10:51:33;;;;;;;1.70;1.50;;;26.40;70.10;;;;;;4961899;28;20610;-78
2023/06/01 10:54:29;;;;;;;1.43;0.80;;;26.20;69.20;;;;;;4987536;28;21234;-78
2023/06/01 10:57:21;;;;;;;1.50;0.80;;;26.30;69.60;;;;;;4975579;28;20563;-79
2023/06/01 11:00:11;;;;;;;1.43;0.80;;;26.40;69.40;;;;;;4976636;28;21204;-80
2023/06/01 11:02:48;;;;;;;1.70;1.20;;;26.40;68.40;;;;;;4986524;28;20482;-78
2023/06/01 11:05:51;;;;;;;1.73;1.63;;;26.40;69.10;;;;;;4981579;28;20477;-79
2023/06/01 11:08:56;;;;;;;1.90;1.00;;;26.40;69.30;;;;;;4964651;28;20840;-78
2023/06/01 11:11:24;;;;;;;1.43;0.80;;;26.40;68.30;;;;;;4973569;28;20578;-79
2023/06/01 11:14:09;;;;;;;3.17;2.90;;;26.40;66.80;;;;;;4990961;28;20572;-77
2023/06/01 11:16:37;;;;;;;1.70;1.43;;;26.30;68.80;;;;;;4969885;28;20499;-79
2023/06/01 11:19:07;;;;;;;1.50;1.00;;;26.30;69.00;;;;;;4984384;28;20576;-77
2023/06/01 11:21:37;;;;;;;1.40;0.80;;;26.40;69.30;;;;;;4973946;28;20476;-77
2023/06/01 11:24:14;;;;;;;3.30;1.73;;;26.60;68.50;;;;;;4979981;28;20529;-78
2023/06/01 11:26:43;;;;;;;1.50;0.90;;;26.70;67.90;;;;;;4970230;28;20487;-76
2023/06/01 11:29:17;;;;;;;1.50;0.90;;;26.80;69.10;;;;;;4983703;28;20471;-79
2023/06/01 11:31:46;;;;;;;1.47;0.80;;;26.80;68.30;;;;;;4971946;28;20476;-79
2023/06/01 11:34:18;;;;;;;1.43;0.80;;;26.90;68.30;;;;;;4981008;28;21265;-78
2023/06/01 11:36:48;;;;;;;1.67;1.30;;;27.00;68.30;;;;;;4976111;28;21004;-79
2023/06/01 11:39:23;;;;;;;1.43;0.80;;;26.80;67.60;;;;;;4984021;28;20489;-78
2023/06/01 11:42:06;;;;;;;1.47;0.80;;;26.80;67.90;;;;;;4974147;28;20532;-77
2023/06/01 11:44:33;;;;;;;1.47;0.80;;;26.80;68.70;;;;;;4979074;28;20572;-77
2023/06/01 11:47:00;;;;;;;1.50;0.80;;;26.90;67.20;;;;;;4978591;28;21149;-78
2023/06/01 11:49:29;;;;;;;1.50;1.00;;;27.10;67.20;;;;;;4987245;28;20461;-76
2023/06/01 11:51:57;;;;;;;1.50;1.00;;;27.30;67.50;;;;;;4978657;28;20479;-76
2023/06/01 11:54:28;;;;;;;1.40;0.80;;;27.40;67.10;;;;;;4981405;28;20611;-76
2023/06/01 11:56:56;;;;;;;1.50;0.90;;;27.60;65.50;;;;;;4975869;28;20477;-76
2023/06/01 11:59:28;;;;;;;1.43;0.80;;;27.60;65.50;;;;;;4985153;28;20485;-80
2023/06/01 12:01:54;;;;;;;1.47;0.80;;;27.60;66.90;;;;;;4976871;28;20476;-76
2023/06/01 12:04:25;;;;;;;1.60;1.10;;;27.60;66.00;;;;;;4980445;28;20493;-77
2023/06/01 12:07:05;;;;;;;1.43;0.80;;;27.70;65.30;;;;;;4973599;28;20663;-76
2023/06/01 12:09:32;;;;;;;1.43;0.80;;;27.90;66.70;;;;;;4980811;28;20541;-77
2023/06/01 12:12:00;;;;;;;1.50;0.80;;;27.90;65.30;;;;;;4978074;28;20495;-77
2023/06/01 12:14:27;;;;;;;1.47;0.80;;;27.80;65.60;;;;;;4984536;28;20488;-78
2023/06/01 12:16:58;;;;;;;1.43;0.83;;;28.00;65.30;;;;;;4973639;28;20900;-77
2023/06/01 12:19:26;;;;;;;1.43;0.80;;;28.10;64.60;;;;;;4979659;28;22006;-78
2023/06/01 12:21:55;;;;;;;1.47;0.80;;;28.30;64.70;;;;;;4976514;28;20488;-77
2023/06/01 12:24:30;;;;;;;1.50;0.90;;;28.30;64.20;;;;;;4986049;28;20500;-78
2023/06/01 12:26:59;;;;;;;1.47;0.80;;;28.40;64.90;;;;;;4980749;28;20489;-78
2023/06/01 12:29:37;;;;;;;1.43;0.80;;;28.40;65.20;;;;;;4984818;28;20468;-78
2023/06/01 12:32:05;;;;;;;1.47;0.80;;;28.50;64.30;;;;;;4974841;28;20494;-79
2023/06/01 12:34:31;;;;;;;1.47;0.90;;;28.30;65.30;;;;;;4984113;28;20562;-77
2023/06/01 12:37:00;;;;;;;1.40;0.80;;;28.20;64.50;;;;;;4980681;28;20484;-77
2023/06/01 12:39:36;;;;;;;1.47;0.80;;;27.90;65.20;;;;;;4990818;28;20839;-78
2023/06/01 12:42:05;;;;;;;1.47;0.80;;;27.90;65.50;;;;;;4978723;28;20476;-75
2023/06/01 12:44:33;;;;;;;1.43;0.80;;;28.10;65.40;;;;;;4983137;28;20576;-75
2023/06/01 12:47:02;;;;;;;1.40;0.80;;;28.20;65.70;;;;;;4977129;28;20479;-76
2023/06/01 12:49:29;;;;;;;3.40;1.37;;;28.30;64.50;;;;;;4985237;28;20452;-76
2023/06/01 12:51:56;;;;;;;1.43;0.80;;;28.20;65.20;;;;;;4980531;28;20749;-76
2023/06/01 12:54:24;;;;;;;1.50;0.80;;;28.10;65.80;;;;;;4980758;28;20503;-76
2023/06/01 12:56:52;;;;;;;1.43;0.80;;;28.00;65.10;;;;;;4977531;28;20625;-75
2023/06/01 12:59:19;;;;;;;1.50;1.00;;;28.10;64.80;;;;;;4985202;28;20610;-77
2023/06/01 13:01:45;;;;;;;1.50;0.80;;;28.10;65.00;;;;;;4977964;28;20471;-76
2023/06/01 13:04:12;;;;;;;1.43;0.80;;;28.20;64.90;;;;;;4982022;28;20651;-76
2023/06/01 13:06:39;;;;;;;1.40;0.80;;;28.20;65.20;;;;;;4970811;28;20486;-77
2023/06/01 13:09:07;;;;;;;1.50;1.00;;;28.40;65.40;;;;;;4985379;28;21031;-76
2023/06/01 13:11:35;;;;;;;1.43;0.80;;;28.40;63.70;;;;;;4974960;28;21101;-75